Terminal Aerodrome Forecast
Issued by NWS

Home | Current Version | Previous Version | Text Only | Print | Product List | Glossary Off
Versions: 1 2 3 4 5 6 7 8 9 10 11 12 13 14 15 16 17

000
FTUS43 KMPX 211100 RRA
TAFRWF
TAF
KRWF 211139Z 2112/2212 33011G17KT P6SM SCT025
     FM211500 33014G22KT P6SM SCT040
     FM212000 34010KT P6SM SCT080
     FM220200 VRB03KT P6SM SKC=

USA.gov is the U.S. government's official web portal to all federal, state and local government web resources and services.